Big Piney, WY weather

Big Piney-Marbleton Airport (AMOS), Big Piney, WY: 11/24/2014 09:53
Visibility10 statute milesclear sky
View 7-Day Forecast
Area Summary
Sky/CloudsSky Clear
Weather [last 24 hours]None [snow began 02:40; snow ended 03:01 began 03:30; snow ended 04:17; snow began 06:12 ended 06:18 ]
Pressure30.14 in.Hg (1021 hPa)
Dew Point12 F (-11.1 C)
Relative Humidity52.7 %
Last 24-Hour Precip.Trace
Reading TimePrecipitation
6-hr ending 11/24@04:53Trace
6-hr ending 11/23@10:53Trace
Temperature27 F (-2.8 C)red thermometer
Wind Chill13.2 F (-10.4 C) ; at peak gust 11.1 F (-11.6 C)
Reading TimeMinimum to Maximum Temperature
6-hr ending 11/24@04:5321 F to 41 F (-6.1 C to 5 C)
6-hr ending 11/23@22:5319 F to 37.9 F (-7.2 C to 3.3 C)
6-hr ending 11/23@16:5334 F to 42.1 F (1.1 C to 5.6 C)
6-hr ending 11/23@10:5321.9 F to 42.1 F (-5.6 C to 5.6 C)
24-hr ending 11/23@23:5319 F to 42.1 F (-7.2 C to 5.6 C)
Wind20.7 MPH (18 KT) gusting to 28.8 MPH (25 KT)green arrow pointing 337.5 degrees
Wind FromNorth/Northwest (340 Degrees)
Last Hour's Peak Wind29.9 MPH (26 KT) on 11/24@09:38
Last Hour's Peak Wind FromNorth/Northwest (340 Degrees)
Rolling 24-hr Peak Wind38 MPH (33 KT) on 11/23@12:00
Rolling 24-hr Peak Wind FromNorth/Northwest (340 Degrees)
Twilight Begins06:51Sunshine Yesterday
Sunrise07:22N/A
Sunset16:52
Twilight Ends17:23
METARKBPI 241653Z AUTO 34018G25KT 10SM CLR M03/M11 A3014 RMK AO2 PK WND 34026/1638 SLP219 T10281111
Tags: